Time;durP1;ratioP1;P1;durP2;ratioP2;P2;SDS_P1;SDS_P2;PMS_P1;PMS_P2;Temp;Humidity;BMP_temperature;BMP_pressure;BME280_temperature;BME280_humidity;BME280_pressure;Samples;Min_cycle;Max_cycle;Signal;HPM_P1;HPM_P2
2022/06/03 00:01:00;;;;;;;0.20;0.20;;;9.00;99.90;;;;;;5056317;28;20444;-82
2022/06/03 00:03:47;;;;;;;0.20;0.20;;;8.70;99.90;;;;;;5051273;28;20448;-82
2022/06/03 00:06:34;;;;;;;0.20;0.20;;;8.90;99.90;;;;;;5050240;28;20437;-82
2022/06/03 00:09:29;;;;;;;0.20;0.20;;;8.90;99.90;;;;;;5072401;28;20855;-82
2022/06/03 00:12:13;;;;;;;0.20;0.20;;;9.10;99.90;;;;;;5056001;28;20809;-82
2022/06/03 00:15:05;;;;;;;0.20;0.20;;;9.00;99.90;;;;;;5080041;28;20880;-82
2022/06/03 00:17:47;;;;;;;0.20;0.20;;;9.10;99.90;;;;;;5090978;28;20497;-82
2022/06/03 00:20:56;;;;;;;0.20;0.20;;;9.00;99.90;;;;;;5048674;28;20441;-82
2022/06/03 00:23:55;;;;;;;0.20;0.20;;;9.00;99.90;;;;;;5032104;28;20541;-82
2022/06/03 00:26:39;;;;;;;0.20;0.20;;;8.80;99.90;;;;;;5049079;28;20472;-82
2022/06/03 00:29:22;;;;;;;0.20;0.20;;;8.80;99.90;;;;;;5051213;28;20461;-82
2022/06/03 00:32:25;;;;;;;0.20;0.20;;;8.80;99.90;;;;;;5051190;28;20452;-81
2022/06/03 00:35:08;;;;;;;0.20;0.20;;;8.70;99.90;;;;;;5035869;28;20453;-83
2022/06/03 00:37:53;;;;;;;0.20;0.20;;;8.70;99.90;;;;;;5046196;28;20996;-82
2022/06/03 00:40:46;;;;;;;0.30;0.30;;;8.70;99.90;;;;;;5063541;28;20456;-82
2022/06/03 00:43:32;;;;;;;0.20;0.20;;;8.70;99.90;;;;;;5050796;28;20406;-82
2022/06/03 00:46:20;;;;;;;0.20;0.20;;;8.70;99.90;;;;;;5050598;28;20434;-82
2022/06/03 00:49:11;;;;;;;0.23;0.23;;;8.70;99.90;;;;;;5045526;28;20576;-82
2022/06/03 00:51:56;;;;;;;0.20;0.20;;;8.60;99.90;;;;;;5048877;28;20476;-82
2022/06/03 00:54:49;;;;;;;0.20;0.20;;;8.60;99.90;;;;;;5029949;28;20472;-82
2022/06/03 00:57:38;;;;;;;0.20;0.20;;;8.60;99.90;;;;;;5037452;28;21063;-82
2022/06/03 01:00:20;;;;;;;0.20;0.20;;;8.50;99.90;;;;;;5049862;28;20443;-82
2022/06/03 01:03:09;;;;;;;0.20;0.20;;;8.40;99.90;;;;;;5052317;28;20455;-83
2022/06/03 01:06:02;;;;;;;0.20;0.20;;;8.40;99.90;;;;;;5043507;28;20568;-82
2022/06/03 01:08:59;;;;;;;0.30;0.30;;;8.50;99.90;;;;;;5065743;28;20496;-82
2022/06/03 01:12:03;;;;;;;0.20;0.20;;;8.60;99.90;;;;;;5051048;28;20436;-82
2022/06/03 01:15:09;;;;;;;0.20;0.20;;;8.60;99.90;;;;;;5069597;28;20444;-82
2022/06/03 01:18:05;;;;;;;0.20;0.20;;;8.70;99.90;;;;;;5055394;28;20527;-82
2022/06/03 01:20:33;;;;;;;0.20;0.20;;;8.60;99.90;;;;;;5055241;28;20955;-82
2022/06/03 01:23:37;;;;;;;0.20;0.20;;;8.70;99.90;;;;;;5083748;28;20448;-82
2022/06/03 01:26:33;;;;;;;0.20;0.20;;;8.40;99.90;;;;;;5050721;28;20417;-82
2022/06/03 01:29:28;;;;;;;0.20;0.20;;;8.40;99.90;;;;;;5050571;28;20477;-81
2022/06/03 01:32:32;;;;;;;0.20;0.20;;;8.20;99.90;;;;;;5046802;28;20459;-83
2022/06/03 01:35:24;;;;;;;0.20;0.20;;;8.20;99.90;;;;;;5067719;28;20452;-82
2022/06/03 01:37:56;;;;;;;0.20;0.20;;;8.10;99.90;;;;;;5051212;28;20440;-82
2022/06/03 01:40:35;;;;;;;0.20;0.20;;;8.00;99.90;;;;;;5069020;28;20448;-82
2022/06/03 01:43:25;;;;;;;0.20;0.20;;;8.10;99.90;;;;;;5087231;28;20438;-81
2022/06/03 01:46:12;;;;;;;0.20;0.20;;;8.00;99.90;;;;;;5069618;28;20424;-82
2022/06/03 01:48:49;;;;;;;0.20;0.20;;;7.90;99.90;;;;;;5068709;28;20495;-82
2022/06/03 01:51:28;;;;;;;0.20;0.20;;;7.90;99.90;;;;;;5067937;28;20442;-82
2022/06/03 01:54:51;;;;;;;0.20;0.20;;;7.80;99.90;;;;;;5082636;28;21026;-83
2022/06/03 01:57:22;;;;;;;0.30;0.30;;;7.80;99.90;;;;;;5007403;28;20451;-82
2022/06/03 02:00:00;;;;;;;0.20;0.20;;;7.70;99.90;;;;;;5006853;28;20898;-82
2022/06/03 02:02:55;;;;;;;0.20;0.20;;;7.70;99.90;;;;;;5043279;28;20544;-82
2022/06/03 02:05:39;;;;;;;0.20;0.20;;;7.80;99.90;;;;;;5078105;28;20444;-82
2022/06/03 02:08:27;;;;;;;0.20;0.20;;;7.60;99.90;;;;;;5082013;28;20501;-83
2022/06/03 02:11:15;;;;;;;0.20;0.20;;;7.60;99.90;;;;;;5047156;28;20441;-83
2022/06/03 02:14:26;;;;;;;0.20;0.20;;;7.60;99.90;;;;;;5047559;28;20453;-83
2022/06/03 02:17:18;;;;;;;0.27;0.27;;;7.40;99.90;;;;;;5049860;28;20932;-83
2022/06/03 02:20:01;;;;;;;0.27;0.27;;;7.40;99.90;;;;;;5044765;28;20452;-83
2022/06/03 02:22:51;;;;;;;0.30;0.30;;;7.30;99.90;;;;;;5046187;28;20558;-83
2022/06/03 02:25:50;;;;;;;0.30;0.30;;;7.40;99.90;;;;;;5038348;28;20811;-83
2022/06/03 02:30:24;;;;;;;0.20;0.20;;;7.40;99.90;;;;;;5048273;28;20491;-83
2022/06/03 02:31:44;;;;;;;0.20;0.20;;;7.30;99.90;;;;;;5041306;28;20445;-84
2022/06/03 02:34:35;;;;;;;0.20;0.20;;;7.20;99.90;;;;;;5079068;28;20433;-83
2022/06/03 02:37:44;;;;;;;0.30;0.30;;;7.40;99.90;;;;;;5047382;28;20448;-83
2022/06/03 02:40:45;;;;;;;0.30;0.30;;;7.40;99.90;;;;;;5051683;28;20452;-84
2022/06/03 02:43:26;;;;;;;0.27;0.27;;;7.30;99.90;;;;;;5032517;28;20870;-83
2022/06/03 02:45:57;;;;;;;0.20;0.20;;;7.20;99.90;;;;;;5047479;28;20506;-83
2022/06/03 02:48:46;;;;;;;0.30;0.30;;;7.10;99.90;;;;;;5049828;28;20587;-84
2022/06/03 02:51:42;;;;;;;0.30;0.30;;;7.10;99.90;;;;;;5037889;28;20443;-83
2022/06/03 02:54:34;;;;;;;0.30;0.30;;;6.90;99.90;;;;;;5029139;28;20430;-84
2022/06/03 02:57:27;;;;;;;0.30;0.30;;;7.20;99.90;;;;;;5030484;28;20520;-84
2022/06/03 03:00:12;;;;;;;0.30;0.30;;;7.20;99.90;;;;;;5048251;28;20445;-84
2022/06/03 03:02:57;;;;;;;0.30;0.30;;;7.10;99.90;;;;;;5028311;28;20434;-84
2022/06/03 03:06:18;;;;;;;0.27;0.27;;;7.00;99.90;;;;;;5046656;28;20445;-84
2022/06/03 03:09:17;;;;;;;0.20;0.20;;;7.10;99.90;;;;;;5045871;28;20646;-84
2022/06/03 03:12:11;;;;;;;0.20;0.20;;;7.00;99.90;;;;;;5040639;28;20510;-84
2022/06/03 03:15:13;;;;;;;0.20;0.20;;;7.00;99.90;;;;;;5048665;28;20476;-83
2022/06/03 03:18:11;;;;;;;0.30;0.30;;;7.00;99.90;;;;;;5032694;28;20429;-84
2022/06/03 03:21:10;;;;;;;0.30;0.30;;;7.00;99.90;;;;;;5050025;28;20785;-84
2022/06/03 03:23:45;;;;;;;0.30;0.30;;;7.00;99.90;;;;;;5052969;28;20437;-84
2022/06/03 03:26:32;;;;;;;0.30;0.30;;;7.00;99.90;;;;;;5084999;28;20420;-83
2022/06/03 03:29:35;;;;;;;0.20;0.20;;;7.00;99.90;;;;;;5077667;28;20492;-84
2022/06/03 03:32:36;;;;;;;0.30;0.30;;;7.00;99.90;;;;;;5050079;28;20536;-84
2022/06/03 03:35:25;;;;;;;0.30;0.30;;;7.00;99.90;;;;;;5056651;28;20444;-84
2022/06/03 03:38:12;;;;;;;0.20;0.20;;;7.00;99.90;;;;;;5049279;28;20978;-84
2022/06/03 03:41:18;;;;;;;0.30;0.30;;;7.00;99.90;;;;;;5060273;28;20452;-84
2022/06/03 03:44:06;;;;;;;0.30;0.30;;;7.00;99.90;;;;;;5049915;28;20503;-83
2022/06/03 03:47:05;;;;;;;0.20;0.20;;;7.10;99.90;;;;;;5049178;28;20445;-84
2022/06/03 03:49:51;;;;;;;0.20;0.20;;;7.10;99.90;;;;;;5041007;28;20464;-85
2022/06/03 03:52:59;;;;;;;0.20;0.20;;;7.10;99.90;;;;;;5050806;28;20507;-84
2022/06/03 03:55:43;;;;;;;0.30;0.30;;;7.10;99.90;;;;;;5026599;28;20449;-85
2022/06/03 03:59:06;;;;;;;0.30;0.30;;;7.00;99.90;;;;;;5046594;28;20440;-84
2022/06/03 04:02:00;;;;;;;0.20;0.20;;;7.00;99.90;;;;;;5048427;28;20436;-85
2022/06/03 04:04:50;;;;;;;0.30;0.30;;;7.20;99.90;;;;;;5040384;28;20452;-84
2022/06/03 04:07:48;;;;;;;0.30;0.30;;;7.20;99.90;;;;;;5053751;28;20578;-84
2022/06/03 04:10:51;;;;;;;0.20;0.20;;;7.30;99.90;;;;;;5067746;28;20468;-84
2022/06/03 04:13:30;;;;;;;0.30;0.30;;;7.20;99.90;;;;;;5055830;28;20987;-84
2022/06/03 04:16:20;;;;;;;0.30;0.30;;;7.30;99.90;;;;;;5069821;28;20550;-84
2022/06/03 04:19:26;;;;;;;0.20;0.20;;;7.40;99.90;;;;;;5065586;28;20821;-84
2022/06/03 04:22:23;;;;;;;0.30;0.30;;;7.50;99.90;;;;;;5063299;28;20469;-83
2022/06/03 04:25:23;;;;;;;0.20;0.20;;;7.50;99.90;;;;;;5081443;28;20459;-84
2022/06/03 04:27:54;;;;;;;0.20;0.20;;;7.60;99.90;;;;;;5066022;28;20472;-84
2022/06/03 04:30:54;;;;;;;0.30;0.30;;;7.70;99.90;;;;;;5068927;28;20435;-85
2022/06/03 04:33:52;;;;;;;0.20;0.20;;;7.60;99.90;;;;;;5064985;28;20475;-84
2022/06/03 04:36:30;;;;;;;0.20;0.20;;;7.60;99.90;;;;;;5049424;28;20502;-84
2022/06/03 04:39:44;;;;;;;0.20;0.20;;;7.60;99.90;;;;;;5072760;28;20443;-84
2022/06/03 04:43:03;;;;;;;0.30;0.30;;;7.70;99.90;;;;;;5036562;28;20433;-85
2022/06/03 04:45:31;;;;;;;0.30;0.30;;;7.80;99.90;;;;;;5067853;28;20528;-85
2022/06/03 04:48:39;;;;;;;0.20;0.20;;;7.90;99.90;;;;;;5069119;28;20537;-85
2022/06/03 04:51:41;;;;;;;0.30;0.30;;;8.10;99.90;;;;;;5067582;28;20439;-84
2022/06/03 04:54:33;;;;;;;0.30;0.30;;;8.20;99.90;;;;;;5066793;28;20444;-85
2022/06/03 04:57:19;;;;;;;0.20;0.20;;;8.30;99.90;;;;;;5071869;28;20452;-85
2022/06/03 05:00:21;;;;;;;0.20;0.20;;;8.50;99.90;;;;;;5069305;28;20882;-84
2022/06/03 05:03:23;;;;;;;0.20;0.20;;;8.60;99.90;;;;;;5061190;28;20450;-84
2022/06/03 05:06:01;;;;;;;0.20;0.20;;;8.70;99.90;;;;;;5060892;28;20444;-84
2022/06/03 05:09:03;;;;;;;0.20;0.20;;;8.90;99.90;;;;;;5069341;28;20475;-85
2022/06/03 05:11:46;;;;;;;0.20;0.20;;;9.00;99.90;;;;;;5064274;28;20444;-84
2022/06/03 05:14:45;;;;;;;0.20;0.20;;;9.10;99.90;;;;;;5069505;28;20444;-85
2022/06/03 05:17:45;;;;;;;0.20;0.20;;;9.20;99.90;;;;;;5042541;28;20445;-86
2022/06/03 05:20:30;;;;;;;0.20;0.20;;;9.30;99.90;;;;;;5046941;28;20447;-84
2022/06/03 05:23:26;;;;;;;0.20;0.20;;;9.30;99.90;;;;;;5064254;28;20472;-85
2022/06/03 05:26:23;;;;;;;0.20;0.20;;;9.40;99.90;;;;;;5067732;28;20506;-86
2022/06/03 05:29:11;;;;;;;0.20;0.20;;;9.70;99.90;;;;;;5067384;28;20483;-87
2022/06/03 05:32:19;;;;;;;0.20;0.20;;;9.80;99.90;;;;;;5070130;28;20501;-87
2022/06/03 05:34:59;;;;;;;0.10;0.10;;;9.90;99.90;;;;;;5080506;28;20500;-85
2022/06/03 05:37:43;;;;;;;0.23;0.23;;;10.00;99.90;;;;;;5071304;28;20443;-86
2022/06/03 05:40:36;;;;;;;0.20;0.20;;;10.10;99.90;;;;;;5043794;28;20537;-85
2022/06/03 05:43:21;;;;;;;0.20;0.20;;;10.20;99.90;;;;;;5063040;28;20471;-85
2022/06/03 05:46:10;;;;;;;0.20;0.20;;;10.30;99.90;;;;;;5045671;28;20455;-86
2022/06/03 05:48:44;;;;;;;0.10;0.10;;;10.50;99.90;;;;;;5069733;28;21083;-85
2022/06/03 05:51:28;;;;;;;0.10;0.10;;;10.50;99.90;;;;;;5070248;28;20509;-85
2022/06/03 05:54:25;;;;;;;0.10;0.10;;;10.50;99.90;;;;;;5075454;28;20539;-86
2022/06/03 05:56:57;;;;;;;0.10;0.10;;;10.70;99.90;;;;;;5065126;28;20436;-86
2022/06/03 05:59:55;;;;;;;0.20;0.20;;;10.80;99.90;;;;;;5068227;28;20467;-86
2022/06/03 06:02:23;;;;;;;0.10;0.10;;;10.80;99.90;;;;;;5081383;28;20471;-85
2022/06/03 06:05:13;;;;;;;0.20;0.20;;;10.90;99.90;;;;;;5078032;28;20432;-84
2022/06/03 06:08:10;;;;;;;0.10;0.10;;;11.00;99.90;;;;;;5060805;28;20983;-84
2022/06/03 06:10:49;;;;;;;0.10;0.10;;;11.00;99.90;;;;;;5037357;28;20503;-85
2022/06/03 06:13:40;;;;;;;0.20;0.20;;;10.80;99.90;;;;;;5066207;28;20444;-83
2022/06/03 06:16:19;;;;;;;0.10;0.10;;;10.90;99.90;;;;;;5049876;28;20420;-84
2022/06/03 06:18:54;;;;;;;0.10;0.10;;;10.90;99.90;;;;;;5062927;28;20545;-83
2022/06/03 06:21:31;;;;;;;0.10;0.10;;;10.90;99.90;;;;;;5081592;28;20474;-86
2022/06/03 06:24:20;;;;;;;0.10;0.10;;;10.90;99.90;;;;;;5045023;28;20447;-87
2022/06/03 06:27:03;;;;;;;0.10;0.10;;;11.00;99.90;;;;;;5045972;28;20521;-86
2022/06/03 06:30:07;;;;;;;0.10;0.10;;;10.90;99.90;;;;;;5044869;28;22509;-85
2022/06/03 06:32:40;;;;;;;0.10;0.10;;;10.80;99.90;;;;;;5064164;28;20581;-84
2022/06/03 06:35:24;;;;;;;0.20;0.20;;;10.80;99.90;;;;;;5045421;28;20431;-83
2022/06/03 06:38:09;;;;;;;0.10;0.10;;;11.00;99.90;;;;;;5068186;28;20451;-83
2022/06/03 06:41:11;;;;;;;0.10;0.10;;;11.10;99.90;;;;;;5073624;28;20441;-83
2022/06/03 06:43:50;;;;;;;0.10;0.10;;;11.30;99.90;;;;;;5069827;28;20457;-84
2022/06/03 06:46:30;;;;;;;0.10;0.10;;;11.30;99.90;;;;;;5064593;28;20475;-85
2022/06/03 06:49:16;;;;;;;0.10;0.10;;;11.20;99.90;;;;;;5082505;28;20482;-83
2022/06/03 06:52:15;;;;;;;0.10;0.10;;;11.10;99.90;;;;;;5085772;28;20436;-84
2022/06/03 06:55:12;;;;;;;0.10;0.10;;;11.20;99.90;;;;;;5081397;28;20530;-83
2022/06/03 06:57:55;;;;;;;0.10;0.10;;;11.60;99.90;;;;;;5043971;28;20548;-83
2022/06/03 07:00:27;;;;;;;0.20;0.20;;;12.00;99.90;;;;;;5059348;28;20523;-83
2022/06/03 07:02:55;;;;;;;0.10;0.10;;;12.00;99.90;;;;;;5085820;28;20432;-84
2022/06/03 07:05:34;;;;;;;0.10;0.10;;;11.80;99.90;;;;;;5053537;28;20751;-83
2022/06/03 07:08:22;;;;;;;0.20;0.20;;;11.90;99.90;;;;;;5069503;28;20547;-84
2022/06/03 07:11:11;;;;;;;0.20;0.20;;;11.70;99.90;;;;;;5068057;28;20804;-84
2022/06/03 07:13:45;;;;;;;0.10;0.10;;;11.60;99.90;;;;;;5033926;28;20534;-84
2022/06/03 07:16:16;;;;;;;0.10;0.10;;;11.70;99.90;;;;;;5065581;28;20866;-84
2022/06/03 07:22:33;;;;;;;0.10;0.10;;;11.50;99.90;;;;;;5070684;28;20446;-83
2022/06/03 07:25:21;;;;;;;0.10;0.10;;;11.70;99.90;;;;;;5052923;28;20409;-84
2022/06/03 07:27:56;;;;;;;0.10;0.10;;;11.80;99.90;;;;;;5065361;28;20477;-81
2022/06/03 07:30:43;;;;;;;0.10;0.10;;;11.50;99.90;;;;;;5069785;28;20432;-82
2022/06/03 07:33:35;;;;;;;0.20;0.20;;;11.70;99.90;;;;;;5063130;28;20480;-84
2022/06/03 07:36:16;;;;;;;0.10;0.10;;;11.70;99.90;;;;;;5066185;28;20471;-82
2022/06/03 07:39:00;;;;;;;0.20;0.20;;;12.00;99.90;;;;;;5051447;28;20443;-83
2022/06/03 07:41:59;;;;;;;0.10;0.10;;;12.40;99.90;;;;;;5067223;28;20841;-85
2022/06/03 07:45:07;;;;;;;0.10;0.10;;;12.30;99.90;;;;;;5034087;28;20458;-84
2022/06/03 07:47:33;;;;;;;0.10;0.10;;;12.50;99.90;;;;;;5054522;28;20468;-85
2022/06/03 07:50:02;;;;;;;0.10;0.10;;;12.80;99.90;;;;;;5068732;28;20553;-84
2022/06/03 07:52:42;;;;;;;0.10;0.10;;;12.70;99.90;;;;;;5049148;28;20442;-83
2022/06/03 07:55:14;;;;;;;0.10;0.10;;;13.10;99.90;;;;;;5071482;28;21194;-84
2022/06/03 07:57:40;;;;;;;0.10;0.10;;;13.50;99.90;;;;;;5066541;28;20521;-84
2022/06/03 08:00:14;;;;;;;0.10;0.10;;;13.70;99.90;;;;;;5050185;28;20481;-84
2022/06/03 08:02:39;;;;;;;0.10;0.10;;;13.60;99.90;;;;;;5071446;28;20468;-83
2022/06/03 08:05:05;;;;;;;0.10;0.10;;;13.20;99.90;;;;;;5053637;28;21016;-82
2022/06/03 08:13:06;;;;;;;0.20;0.20;;;13.30;99.90;;;;;;5078924;28;20508;-83
2022/06/03 08:15:39;;;;;;;0.10;0.10;;;13.30;99.90;;;;;;5080093;28;20446;-83
2022/06/03 08:18:06;;;;;;;0.10;0.10;;;13.50;99.90;;;;;;5083567;28;20435;-83
2022/06/03 08:20:37;;;;;;;0.10;0.10;;;13.40;99.90;;;;;;5055254;28;20932;-85
2022/06/03 08:23:04;;;;;;;0.10;0.10;;;13.60;99.90;;;;;;5042704;28;20475;-82
2022/06/03 08:25:37;;;;;;;0.10;0.10;;;13.80;99.90;;;;;;5052012;28;20498;-82
2022/06/03 08:28:03;;;;;;;0.10;0.10;;;14.10;99.90;;;;;;5066645;28;20476;-84
2022/06/03 08:30:29;;;;;;;0.10;0.10;;;14.10;99.90;;;;;;5071089;28;20440;-83
2022/06/03 08:33:11;;;;;;;0.10;0.10;;;14.10;99.90;;;;;;5072450;28;20193;-84
2022/06/03 08:35:43;;;;;;;0.10;0.10;;;13.90;99.90;;;;;;5069976;28;21155;-83
2022/06/03 08:38:14;;;;;;;0.10;0.10;;;14.10;99.90;;;;;;5070757;28;20444;-83
2022/06/03 08:41:04;;;;;;;0.20;0.20;;;14.30;99.90;;;;;;5051081;28;20443;-81
2022/06/03 08:43:38;;;;;;;0.10;0.10;;;14.30;99.90;;;;;;5070927;28;20537;-82
2022/06/03 08:46:14;;;;;;;0.10;0.10;;;14.60;99.90;;;;;;5048979;28;20429;-86
2022/06/03 08:48:44;;;;;;;0.20;0.20;;;14.70;99.90;;;;;;5068602;28;20514;-85
2022/06/03 08:51:27;;;;;;;0.10;0.10;;;15.10;99.90;;;;;;5062910;28;20487;-83
2022/06/03 08:54:27;;;;;;;0.10;0.10;;;15.20;99.90;;;;;;5069856;28;20462;-83
2022/06/03 08:57:00;;;;;;;0.10;0.10;;;15.20;99.90;;;;;;5074634;28;20547;-84
2022/06/03 08:59:41;;;;;;;0.10;0.10;;;15.40;99.90;;;;;;5065416;28;20459;-84
2022/06/03 09:02:13;;;;;;;0.10;0.10;;;15.50;99.90;;;;;;5063588;28;20534;-82
2022/06/03 09:04:47;;;;;;;0.10;0.10;;;15.50;99.90;;;;;;5071597;28;20450;-82
2022/06/03 09:07:32;;;;;;;0.10;0.10;;;15.70;99.90;;;;;;5062084;28;20475;-86
2022/06/03 09:10:20;;;;;;;0.10;0.10;;;15.70;99.90;;;;;;5054493;28;20476;-83
2022/06/03 09:13:01;;;;;;;0.10;0.10;;;15.70;99.90;;;;;;5050540;28;21006;-83
2022/06/03 09:15:33;;;;;;;0.10;0.10;;;15.80;99.90;;;;;;5064581;28;20559;-83
2022/06/03 09:18:09;;;;;;;0.10;0.10;;;15.90;99.90;;;;;;5072535;28;20536;-84
2022/06/03 09:21:03;;;;;;;0.10;0.10;;;15.80;99.90;;;;;;5045337;28;20455;-84
2022/06/03 09:23:33;;;;;;;0.10;0.10;;;16.20;99.90;;;;;;5068490;28;20455;-82
2022/06/03 09:26:00;;;;;;;0.10;0.10;;;16.20;99.90;;;;;;5069573;28;20454;-82
2022/06/03 09:28:35;;;;;;;0.10;0.10;;;16.80;99.90;;;;;;5067151;28;20530;-81
2022/06/03 09:31:05;;;;;;;0.10;0.10;;;17.00;99.90;;;;;;5069761;28;20455;-82
2022/06/03 09:33:33;;;;;;;0.10;0.10;;;17.20;99.90;;;;;;5067712;28;20956;-82
2022/06/03 09:36:03;;;;;;;0.10;0.10;;;17.00;99.90;;;;;;5066111;28;20447;-86
2022/06/03 09:38:52;;;;;;;0.10;0.10;;;17.10;99.90;;;;;;5071057;28;20444;-84
2022/06/03 09:41:21;;;;;;;0.10;0.10;;;16.90;99.90;;;;;;5064429;28;20440;-82
2022/06/03 09:43:50;;;;;;;0.10;0.10;;;16.90;99.90;;;;;;5057663;28;20453;-82
2022/06/03 09:46:17;;;;;;;0.10;0.10;;;17.20;99.90;;;;;;5064166;28;21193;-81
2022/06/03 09:48:43;;;;;;;0.10;0.10;;;17.50;99.90;;;;;;5049998;28;20486;-82
2022/06/03 09:51:55;;;;;;;0.10;0.10;;;17.70;99.90;;;;;;5069270;28;21003;-83
2022/06/03 09:54:12;;;;;;;0.10;0.10;;;17.80;99.90;;;;;;5064464;28;20443;-82
2022/06/03 09:56:38;;;;;;;0.10;0.10;;;17.70;99.90;;;;;;5066343;28;20432;-82
2022/06/03 09:59:04;;;;;;;0.10;0.10;;;17.60;99.90;;;;;;5067882;28;20454;-82
2022/06/03 10:01:30;;;;;;;0.10;0.10;;;18.10;99.90;;;;;;5068487;28;20189;-81
2022/06/03 10:03:59;;;;;;;0.10;0.10;;;18.30;99.90;;;;;;5068227;28;20448;-84
2022/06/03 10:06:43;;;;;;;0.10;0.10;;;18.40;99.90;;;;;;5084652;28;20885;-82
2022/06/03 10:15:37;;;;;;;0.10;0.10;;;18.40;99.90;;;;;;5068237;28;20963;-83
2022/06/03 10:17:33;;;;;;;0.10;0.10;;;18.40;99.90;;;;;;5067864;28;20984;-82
2022/06/03 10:19:59;;;;;;;0.10;0.10;;;18.60;99.90;;;;;;5065080;28;20437;-83
2022/06/03 10:22:24;;;;;;;0.10;0.10;;;19.00;99.90;;;;;;5049491;28;20448;-86
2022/06/03 10:24:50;;;;;;;0.10;0.10;;;19.50;99.90;;;;;;5053811;28;20186;-85
2022/06/03 10:27:18;;;;;;;0.10;0.10;;;19.10;99.90;;;;;;5072763;28;20277;-82
2022/06/03 10:29:49;;;;;;;0.10;0.10;;;19.60;99.90;;;;;;5055997;28;20673;-81
2022/06/03 10:32:20;;;;;;;0.10;0.00;;;20.20;99.90;;;;;;5073780;28;20508;-83
2022/06/03 10:34:47;;;;;;;0.10;0.00;;;20.60;99.90;;;;;;5074079;28;20501;-84
2022/06/03 10:37:15;;;;;;;0.10;0.00;;;20.40;99.90;;;;;;5065192;28;20435;-83
2022/06/03 10:39:43;;;;;;;0.10;0.10;;;20.60;99.90;;;;;;5076701;28;20476;-85
2022/06/03 10:42:14;;;;;;;0.10;0.00;;;20.10;99.90;;;;;;5060333;28;20531;-82
2022/06/03 10:44:45;;;;;;;0.10;0.00;;;19.90;99.90;;;;;;5068500;28;20461;-83
2022/06/03 10:47:23;;;;;;;0.10;0.00;;;20.10;99.90;;;;;;5081891;28;20448;-83
2022/06/03 10:50:00;;;;;;;0.10;0.00;;;20.20;99.90;;;;;;5058598;28;20482;-85
2022/06/03 11:01:13;;;;;;;0.10;0.00;;;22.50;99.90;;;;;;5071374;28;20915;-82
2022/06/03 11:03:41;;;;;;;0.10;0.00;;;21.70;99.90;;;;;;5083553;28;20598;-81
2022/06/03 11:06:11;;;;;;;0.10;0.00;;;22.20;99.90;;;;;;5053058;28;20995;-83
2022/06/03 11:08:59;;;;;;;0.10;0.00;;;21.30;99.90;;;;;;5051101;28;20850;-83
2022/06/03 11:11:31;;;;;;;0.10;0.00;;;22.10;99.90;;;;;;5050164;28;20903;-84
2022/06/03 11:13:56;;;;;;;0.10;0.00;;;22.70;99.90;;;;;;5049522;28;20476;-83
2022/06/03 11:16:24;;;;;;;0.10;0.00;;;23.20;99.90;;;;;;5052417;28;20866;-82
2022/06/03 11:18:49;;;;;;;0.10;0.00;;;22.70;99.90;;;;;;5052121;28;20186;-83
2022/06/03 11:21:29;;;;;;;0.10;0.00;;;22.80;99.90;;;;;;5052175;28;20470;-84
2022/06/03 11:23:57;;;;;;;0.10;0.00;;;23.20;99.90;;;;;;5050852;28;20188;-81
2022/06/03 11:26:35;;;;;;;0.00;0.00;;;23.70;99.90;;;;;;5051513;28;20428;-83
2022/06/03 11:29:26;;;;;;;0.00;0.00;;;23.90;99.90;;;;;;5048505;28;20858;-82
2022/06/03 11:31:54;;;;;;;0.00;0.00;;;23.90;99.90;;;;;;5062574;28;20429;-82
2022/06/03 11:34:37;;;;;;;0.10;0.00;;;24.30;99.90;;;;;;5050674;28;20448;-82
2022/06/03 11:37:10;;;;;;;0.10;0.00;;;24.00;99.90;;;;;;5049254;28;20444;-81
2022/06/03 11:39:48;;;;;;;0.00;0.00;;;23.80;99.90;;;;;;5048835;28;20445;-83
2022/06/03 11:42:27;;;;;;;0.07;0.00;;;24.40;99.90;;;;;;5055959;28;20447;-80
2022/06/03 11:45:15;;;;;;;0.10;0.00;;;24.10;99.90;;;;;;5053550;28;20841;-80
2022/06/03 11:48:07;;;;;;;0.10;0.00;;;24.70;99.90;;;;;;5052201;28;20901;-80
2022/06/03 11:50:35;;;;;;;0.00;0.00;;;25.30;99.90;;;;;;5049787;28;20445;-82
2022/06/03 11:53:01;;;;;;;0.00;0.00;;;24.40;99.90;;;;;;5048138;28;20456;-81
2022/06/03 11:55:30;;;;;;;0.00;0.00;;;24.80;99.90;;;;;;5048197;28;20964;-82
2022/06/03 11:58:33;;;;;;;0.00;0.00;;;24.00;99.90;;;;;;5047516;28;21062;-83
2022/06/03 12:01:04;;;;;;;0.00;0.00;;;23.20;99.90;;;;;;5044852;28;20468;-83
2022/06/03 12:03:40;;;;;;;0.00;0.00;;;23.40;99.90;;;;;;5050509;28;20457;-80
2022/06/03 12:06:13;;;;;;;0.00;0.00;;;24.50;99.90;;;;;;5056413;28;20436;-82
2022/06/03 12:08:53;;;;;;;0.00;0.00;;;24.30;99.90;;;;;;5066009;28;20479;-83
2022/06/03 12:14:38;;;;;;;0.00;0.00;;;25.00;99.90;;;;;;5065186;28;20459;-81
2022/06/03 12:17:09;;;;;;;0.00;0.00;;;24.80;99.90;;;;;;5074296;28;21012;-82
2022/06/03 12:19:42;;;;;;;0.00;0.00;;;24.70;99.90;;;;;;5060191;28;21089;-83
2022/06/03 12:22:28;;;;;;;0.00;0.00;;;24.70;99.90;;;;;;5067803;28;20455;-82
2022/06/03 12:24:54;;;;;;;0.00;0.00;;;23.90;99.90;;;;;;5065278;28;20451;-84
2022/06/03 12:27:36;;;;;;;0.00;0.00;;;24.90;99.90;;;;;;5057349;28;20814;-83
2022/06/03 12:30:20;;;;;;;0.00;0.00;;;24.60;99.90;;;;;;5050879;28;20510;-84
2022/06/03 12:33:09;;;;;;;0.00;0.00;;;24.10;99.90;;;;;;5067283;28;20547;-82
2022/06/03 12:35:52;;;;;;;0.00;0.00;;;24.80;99.90;;;;;;5066068;28;20454;-84
2022/06/03 12:38:21;;;;;;;0.00;0.00;;;23.70;99.90;;;;;;5071031;28;20523;-83
2022/06/03 12:40:48;;;;;;;0.00;0.00;;;23.50;99.90;;;;;;5070628;28;20489;-81
2022/06/03 12:43:28;;;;;;;0.00;0.00;;;24.20;99.90;;;;;;5070534;28;20489;-82
2022/06/03 12:46:07;;;;;;;0.00;0.00;;;23.70;99.90;;;;;;5057790;28;20490;-80
2022/06/03 12:48:51;;;;;;;0.00;0.00;;;24.10;99.90;;;;;;5086525;28;20475;-83
2022/06/03 12:51:25;;;;;;;0.00;0.00;;;24.60;99.90;;;;;;5051173;28;20432;-81
2022/06/03 12:53:55;;;;;;;0.00;0.00;;;25.20;99.90;;;;;;5051118;28;20425;-84
2022/06/03 12:56:40;;;;;;;0.00;0.00;;;24.70;99.90;;;;;;5075335;28;20454;-80
2022/06/03 12:59:22;;;;;;;0.00;0.00;;;24.50;99.90;;;;;;5091428;28;20770;-82
2022/06/03 13:02:00;;;;;;;0.00;0.00;;;25.00;99.90;;;;;;5075327;28;20447;-81
2022/06/03 13:04:38;;;;;;;0.00;0.00;;;24.50;99.90;;;;;;5052918;28;20424;-81
2022/06/03 13:07:25;;;;;;;0.00;0.00;;;25.10;99.90;;;;;;5081940;28;20438;-81
2022/06/03 13:10:03;;;;;;;0.00;0.00;;;24.20;99.90;;;;;;5103805;28;20462;-81
2022/06/03 13:12:32;;;;;;;0.00;0.00;;;24.70;99.90;;;;;;5091212;28;20846;-80
2022/06/03 13:15:16;;;;;;;0.00;0.00;;;24.70;99.90;;;;;;5072139;28;20448;-85
2022/06/03 13:17:59;;;;;;;0.00;0.00;;;23.50;99.90;;;;;;5066853;28;20809;-82
2022/06/03 13:20:41;;;;;;;0.00;0.00;;;23.40;99.90;;;;;;5091004;28;20453;-83
2022/06/03 13:23:19;;;;;;;0.00;0.00;;;22.70;99.90;;;;;;5076658;28;20475;-83
2022/06/03 13:25:52;;;;;;;0.00;0.00;;;22.90;99.90;;;;;;5048368;28;20536;-86
2022/06/03 13:28:35;;;;;;;0.00;0.00;;;22.60;99.90;;;;;;5066485;28;20480;-83
2022/06/03 13:31:13;;;;;;;0.00;0.00;;;22.90;99.90;;;;;;5068797;28;20450;-83
2022/06/03 13:34:08;;;;;;;0.00;0.00;;;23.10;99.90;;;;;;5067036;28;20546;-83
2022/06/03 13:36:49;;;;;;;0.00;0.00;;;22.60;99.90;;;;;;5068247;28;20833;-84
2022/06/03 13:39:24;;;;;;;0.00;0.00;;;23.00;99.90;;;;;;5069369;28;20578;-82
2022/06/03 13:45:01;;;;;;;0.00;0.00;;;22.50;99.90;;;;;;5068813;28;20450;-83
2022/06/03 13:47:32;;;;;;;0.00;0.00;;;22.60;99.90;;;;;;5063689;28;20447;-84
2022/06/03 13:50:18;;;;;;;0.10;0.00;;;22.80;99.90;;;;;;5067545;28;21119;-83
2022/06/03 13:52:46;;;;;;;0.10;0.00;;;23.00;99.90;;;;;;5066892;28;20453;-82
2022/06/03 13:55:30;;;;;;;0.10;0.00;;;22.80;99.90;;;;;;5068415;28;20444;-82
2022/06/03 13:58:14;;;;;;;0.10;0.00;;;22.80;99.90;;;;;;5064915;28;20452;-82
2022/06/03 14:00:51;;;;;;;0.10;0.00;;;23.20;99.90;;;;;;5068343;28;20467;-81
2022/06/03 14:03:43;;;;;;;0.10;0.00;;;22.70;99.90;;;;;;5067876;28;20807;-81
2022/06/03 14:06:30;;;;;;;0.10;0.00;;;23.20;99.90;;;;;;5062737;28;20460;-82
2022/06/03 14:09:18;;;;;;;0.10;0.00;;;23.00;99.90;;;;;;5049325;28;20584;-80
2022/06/03 14:12:20;;;;;;;0.00;0.00;;;22.70;99.90;;;;;;5045092;28;21383;-82
2022/06/03 14:15:13;;;;;;;0.00;0.00;;;22.90;99.90;;;;;;5060038;28;20456;-82
2022/06/03 14:17:41;;;;;;;0.10;0.10;;;23.10;99.90;;;;;;5068950;28;20452;-82
2022/06/03 14:20:13;;;;;;;0.10;0.00;;;22.50;99.90;;;;;;5067631;28;20928;-83
2022/06/03 14:22:49;;;;;;;0.10;0.00;;;22.60;99.90;;;;;;5068906;28;20505;-83
2022/06/03 14:25:43;;;;;;;0.10;0.00;;;22.70;99.90;;;;;;5063115;28;20516;-84
2022/06/03 14:28:25;;;;;;;0.10;0.00;;;22.90;99.90;;;;;;5067189;28;20525;-81
2022/06/03 14:31:14;;;;;;;0.10;0.00;;;22.90;99.90;;;;;;5069720;28;20497;-82
2022/06/03 14:33:44;;;;;;;0.00;0.00;;;23.30;99.90;;;;;;5063501;28;20558;-84
2022/06/03 14:36:11;;;;;;;0.10;0.00;;;23.00;99.90;;;;;;5067836;28;20435;-83
2022/06/03 14:38:44;;;;;;;0.10;0.00;;;22.40;99.90;;;;;;5066976;28;20563;-82
2022/06/03 14:41:14;;;;;;;0.10;0.00;;;22.20;99.90;;;;;;5065311;28;20940;-84
2022/06/03 14:43:41;;;;;;;0.10;0.00;;;22.70;99.90;;;;;;5067160;28;20535;-84